sensor_id;sensor_type;location;lat;lon;timestamp;P1;durP1;ratioP1;P2;durP2;ratioP2
13374;SDS011;6756;51.354;15.754;2022-10-16T00:03:44;26.03;;;17.37;;
13374;SDS011;6756;51.354;15.754;2022-10-16T00:07:46;28.23;;;18.87;;
13374;SDS011;6756;51.354;15.754;2022-10-16T00:11:47;27.37;;;17.93;;
13374;SDS011;6756;51.354;15.754;2022-10-16T00:15:48;31.87;;;20.27;;
13374;SDS011;6756;51.354;15.754;2022-10-16T00:19:48;27.40;;;18.77;;
13374;SDS011;6756;51.354;15.754;2022-10-16T00:23:50;27.80;;;18.30;;
13374;SDS011;6756;51.354;15.754;2022-10-16T00:27:53;24.87;;;15.80;;
13374;SDS011;6756;51.354;15.754;2022-10-16T00:31:53;23.97;;;15.47;;
13374;SDS011;6756;51.354;15.754;2022-10-16T00:35:54;21.40;;;14.83;;
13374;SDS011;6756;51.354;15.754;2022-10-16T00:39:58;22.63;;;15.20;;
13374;SDS011;6756;51.354;15.754;2022-10-16T00:44:00;18.23;;;13.10;;
13374;SDS011;6756;51.354;15.754;2022-10-16T00:48:03;15.83;;;10.73;;
13374;SDS011;6756;51.354;15.754;2022-10-16T00:52:10;14.77;;;10.60;;
13374;SDS011;6756;51.354;15.754;2022-10-16T00:56:11;12.33;;;8.97;;
13374;SDS011;6756;51.354;15.754;2022-10-16T01:00:14;9.77;;;8.43;;
13374;SDS011;6756;51.354;15.754;2022-10-16T01:04:20;9.33;;;7.73;;
13374;SDS011;6756;51.354;15.754;2022-10-16T01:08:22;8.77;;;7.87;;
13374;SDS011;6756;51.354;15.754;2022-10-16T01:16:49;8.53;;;6.40;;
13374;SDS011;6756;51.354;15.754;2022-10-16T01:21:05;7.73;;;6.47;;
13374;SDS011;6756;51.354;15.754;2022-10-16T01:25:09;5.70;;;5.10;;
13374;SDS011;6756;51.354;15.754;2022-10-16T01:29:21;11.30;;;7.53;;
13374;SDS011;6756;51.354;15.754;2022-10-16T01:33:31;9.03;;;7.87;;
13374;SDS011;6756;51.354;15.754;2022-10-16T01:37:49;18.40;;;13.90;;
13374;SDS011;6756;51.354;15.754;2022-10-16T01:41:57;26.43;;;16.33;;
13374;SDS011;6756;51.354;15.754;2022-10-16T01:46:05;33.40;;;21.17;;
13374;SDS011;6756;51.354;15.754;2022-10-16T01:50:08;24.00;;;14.67;;
13374;SDS011;6756;51.354;15.754;2022-10-16T01:54:09;18.17;;;11.80;;
13374;SDS011;6756;51.354;15.754;2022-10-16T01:58:13;14.77;;;10.83;;
13374;SDS011;6756;51.354;15.754;2022-10-16T02:02:15;20.27;;;11.30;;
13374;SDS011;6756;51.354;15.754;2022-10-16T02:06:18;16.63;;;11.20;;
13374;SDS011;6756;51.354;15.754;2022-10-16T02:10:19;16.90;;;11.17;;
13374;SDS011;6756;51.354;15.754;2022-10-16T02:14:21;15.37;;;11.67;;
13374;SDS011;6756;51.354;15.754;2022-10-16T02:18:25;15.17;;;10.77;;
13374;SDS011;6756;51.354;15.754;2022-10-16T02:22:47;15.03;;;10.97;;
13374;SDS011;6756;51.354;15.754;2022-10-16T02:26:57;12.40;;;9.83;;
13374;SDS011;6756;51.354;15.754;2022-10-16T02:31:04;15.17;;;11.23;;
13374;SDS011;6756;51.354;15.754;2022-10-16T02:35:10;15.40;;;10.67;;
13374;SDS011;6756;51.354;15.754;2022-10-16T02:39:11;20.57;;;13.27;;
13374;SDS011;6756;51.354;15.754;2022-10-16T02:43:13;25.07;;;15.97;;
13374;SDS011;6756;51.354;15.754;2022-10-16T02:47:14;26.20;;;15.47;;
13374;SDS011;6756;51.354;15.754;2022-10-16T02:51:15;23.17;;;15.90;;
13374;SDS011;6756;51.354;15.754;2022-10-16T02:55:16;20.80;;;13.80;;
13374;SDS011;6756;51.354;15.754;2022-10-16T02:59:17;17.30;;;12.80;;
13374;SDS011;6756;51.354;15.754;2022-10-16T03:03:17;19.27;;;13.53;;
13374;SDS011;6756;51.354;15.754;2022-10-16T03:07:18;17.90;;;11.93;;
13374;SDS011;6756;51.354;15.754;2022-10-16T03:11:19;18.00;;;11.77;;
13374;SDS011;6756;51.354;15.754;2022-10-16T03:15:20;13.60;;;10.87;;
13374;SDS011;6756;51.354;15.754;2022-10-16T03:19:21;9.00;;;7.80;;
13374;SDS011;6756;51.354;15.754;2022-10-16T03:23:22;9.70;;;7.60;;
13374;SDS011;6756;51.354;15.754;2022-10-16T03:27:23;8.40;;;7.53;;
13374;SDS011;6756;51.354;15.754;2022-10-16T03:31:24;7.30;;;6.30;;
13374;SDS011;6756;51.354;15.754;2022-10-16T03:35:24;7.73;;;7.00;;
13374;SDS011;6756;51.354;15.754;2022-10-16T03:39:25;7.00;;;6.13;;
13374;SDS011;6756;51.354;15.754;2022-10-16T03:43:27;7.07;;;6.40;;
13374;SDS011;6756;51.354;15.754;2022-10-16T03:47:27;7.67;;;5.83;;
13374;SDS011;6756;51.354;15.754;2022-10-16T03:51:28;6.63;;;5.93;;
13374;SDS011;6756;51.354;15.754;2022-10-16T03:55:29;7.40;;;6.50;;
13374;SDS011;6756;51.354;15.754;2022-10-16T03:59:30;6.90;;;6.20;;
13374;SDS011;6756;51.354;15.754;2022-10-16T04:03:30;7.03;;;5.93;;
13374;SDS011;6756;51.354;15.754;2022-10-16T04:07:31;6.10;;;5.50;;
13374;SDS011;6756;51.354;15.754;2022-10-16T04:11:32;6.60;;;6.00;;
13374;SDS011;6756;51.354;15.754;2022-10-16T04:15:33;8.40;;;6.77;;
13374;SDS011;6756;51.354;15.754;2022-10-16T04:19:34;6.40;;;5.80;;
13374;SDS011;6756;51.354;15.754;2022-10-16T04:23:34;5.97;;;5.47;;
13374;SDS011;6756;51.354;15.754;2022-10-16T04:27:35;6.10;;;5.60;;
13374;SDS011;6756;51.354;15.754;2022-10-16T04:31:36;6.47;;;5.77;;
13374;SDS011;6756;51.354;15.754;2022-10-16T04:35:37;5.87;;;5.27;;
13374;SDS011;6756;51.354;15.754;2022-10-16T04:39:37;6.43;;;5.73;;
13374;SDS011;6756;51.354;15.754;2022-10-16T04:43:38;7.13;;;6.20;;
13374;SDS011;6756;51.354;15.754;2022-10-16T04:47:39;6.30;;;5.73;;
13374;SDS011;6756;51.354;15.754;2022-10-16T04:51:40;6.27;;;5.60;;
13374;SDS011;6756;51.354;15.754;2022-10-16T04:55:41;6.67;;;6.07;;
13374;SDS011;6756;51.354;15.754;2022-10-16T04:59:42;6.87;;;6.27;;
13374;SDS011;6756;51.354;15.754;2022-10-16T05:03:42;7.00;;;6.40;;
13374;SDS011;6756;51.354;15.754;2022-10-16T05:07:43;6.70;;;6.10;;
13374;SDS011;6756;51.354;15.754;2022-10-16T05:11:44;9.53;;;6.10;;
13374;SDS011;6756;51.354;15.754;2022-10-16T05:15:48;7.43;;;6.73;;
13374;SDS011;6756;51.354;15.754;2022-10-16T05:19:48;6.97;;;6.37;;
13374;SDS011;6756;51.354;15.754;2022-10-16T05:23:49;8.13;;;5.37;;
13374;SDS011;6756;51.354;15.754;2022-10-16T05:27:50;6.23;;;5.63;;
13374;SDS011;6756;51.354;15.754;2022-10-16T05:31:51;5.87;;;5.37;;
13374;SDS011;6756;51.354;15.754;2022-10-16T05:35:52;6.23;;;5.60;;
13374;SDS011;6756;51.354;15.754;2022-10-16T05:39:53;4.67;;;4.27;;
13374;SDS011;6756;51.354;15.754;2022-10-16T05:43:54;5.43;;;4.93;;
13374;SDS011;6756;51.354;15.754;2022-10-16T05:47:54;5.13;;;4.60;;
13374;SDS011;6756;51.354;15.754;2022-10-16T05:51:55;6.30;;;4.90;;
13374;SDS011;6756;51.354;15.754;2022-10-16T05:55:56;4.87;;;4.23;;
13374;SDS011;6756;51.354;15.754;2022-10-16T05:59:57;5.63;;;4.00;;
13374;SDS011;6756;51.354;15.754;2022-10-16T06:03:58;4.33;;;3.83;;
13374;SDS011;6756;51.354;15.754;2022-10-16T06:07:59;3.77;;;3.43;;
13374;SDS011;6756;51.354;15.754;2022-10-16T06:12:00;4.50;;;3.57;;
13374;SDS011;6756;51.354;15.754;2022-10-16T06:16:00;4.87;;;3.57;;
13374;SDS011;6756;51.354;15.754;2022-10-16T06:20:02;3.70;;;3.40;;
13374;SDS011;6756;51.354;15.754;2022-10-16T06:24:03;3.30;;;3.00;;
13374;SDS011;6756;51.354;15.754;2022-10-16T06:28:04;3.30;;;3.00;;
13374;SDS011;6756;51.354;15.754;2022-10-16T06:32:05;4.03;;;3.60;;
13374;SDS011;6756;51.354;15.754;2022-10-16T06:36:07;3.93;;;3.53;;
13374;SDS011;6756;51.354;15.754;2022-10-16T06:40:15;4.03;;;3.23;;
13374;SDS011;6756;51.354;15.754;2022-10-16T06:44:16;4.30;;;3.40;;
13374;SDS011;6756;51.354;15.754;2022-10-16T06:48:17;3.40;;;3.10;;
13374;SDS011;6756;51.354;15.754;2022-10-16T06:52:17;4.00;;;3.60;;
13374;SDS011;6756;51.354;15.754;2022-10-16T06:56:22;4.53;;;4.13;;
13374;SDS011;6756;51.354;15.754;2022-10-16T07:00:25;3.87;;;3.57;;
13374;SDS011;6756;51.354;15.754;2022-10-16T07:04:26;3.77;;;3.47;;
13374;SDS011;6756;51.354;15.754;2022-10-16T07:08:27;3.80;;;3.50;;
13374;SDS011;6756;51.354;15.754;2022-10-16T07:12:27;4.87;;;4.40;;
13374;SDS011;6756;51.354;15.754;2022-10-16T07:16:29;4.03;;;3.70;;
13374;SDS011;6756;51.354;15.754;2022-10-16T07:20:31;4.40;;;4.00;;
13374;SDS011;6756;51.354;15.754;2022-10-16T07:24:32;3.20;;;2.90;;
13374;SDS011;6756;51.354;15.754;2022-10-16T07:28:33;3.40;;;3.10;;
13374;SDS011;6756;51.354;15.754;2022-10-16T07:32:34;3.80;;;3.43;;
13374;SDS011;6756;51.354;15.754;2022-10-16T07:36:35;3.53;;;3.23;;
13374;SDS011;6756;51.354;15.754;2022-10-16T07:40:36;4.60;;;2.87;;
13374;SDS011;6756;51.354;15.754;2022-10-16T07:44:37;3.57;;;3.27;;
13374;SDS011;6756;51.354;15.754;2022-10-16T07:48:38;3.20;;;2.90;;
13374;SDS011;6756;51.354;15.754;2022-10-16T07:52:39;3.93;;;3.00;;
13374;SDS011;6756;51.354;15.754;2022-10-16T07:56:39;3.20;;;2.90;;
13374;SDS011;6756;51.354;15.754;2022-10-16T08:00:40;3.63;;;3.33;;
13374;SDS011;6756;51.354;15.754;2022-10-16T08:04:41;3.53;;;3.10;;
13374;SDS011;6756;51.354;15.754;2022-10-16T08:08:42;4.03;;;3.07;;
13374;SDS011;6756;51.354;15.754;2022-10-16T08:12:43;3.77;;;2.80;;
13374;SDS011;6756;51.354;15.754;2022-10-16T08:16:43;3.47;;;3.13;;
13374;SDS011;6756;51.354;15.754;2022-10-16T08:20:44;3.20;;;2.90;;
13374;SDS011;6756;51.354;15.754;2022-10-16T08:24:45;3.40;;;3.10;;
13374;SDS011;6756;51.354;15.754;2022-10-16T08:28:49;3.20;;;2.77;;
13374;SDS011;6756;51.354;15.754;2022-10-16T08:32:50;3.00;;;2.73;;
13374;SDS011;6756;51.354;15.754;2022-10-16T08:36:54;2.97;;;2.67;;
13374;SDS011;6756;51.354;15.754;2022-10-16T08:41:17;3.33;;;3.03;;
13374;SDS011;6756;51.354;15.754;2022-10-16T08:45:39;2.77;;;2.57;;
13374;SDS011;6756;51.354;15.754;2022-10-16T08:49:57;4.70;;;2.80;;
13374;SDS011;6756;51.354;15.754;2022-10-16T08:54:03;3.37;;;2.63;;
13374;SDS011;6756;51.354;15.754;2022-10-16T08:58:48;2.80;;;2.33;;
13374;SDS011;6756;51.354;15.754;2022-10-16T09:11:22;2.40;;;2.20;;
13374;SDS011;6756;51.354;15.754;2022-10-16T09:15:51;4.43;;;2.43;;
13374;SDS011;6756;51.354;15.754;2022-10-16T09:24:30;3.83;;;2.13;;
13374;SDS011;6756;51.354;15.754;2022-10-16T09:28:30;2.50;;;2.20;;
13374;SDS011;6756;51.354;15.754;2022-10-16T09:32:32;2.30;;;2.10;;
13374;SDS011;6756;51.354;15.754;2022-10-16T09:36:36;2.77;;;2.57;;
13374;SDS011;6756;51.354;15.754;2022-10-16T09:40:41;4.17;;;2.50;;
13374;SDS011;6756;51.354;15.754;2022-10-16T09:44:46;2.20;;;2.10;;
13374;SDS011;6756;51.354;15.754;2022-10-16T09:48:49;2.53;;;2.33;;
13374;SDS011;6756;51.354;15.754;2022-10-16T09:57:26;2.70;;;2.50;;
13374;SDS011;6756;51.354;15.754;2022-10-16T10:01:38;4.90;;;2.40;;
13374;SDS011;6756;51.354;15.754;2022-10-16T10:05:39;4.83;;;3.03;;
13374;SDS011;6756;51.354;15.754;2022-10-16T10:09:42;3.60;;;2.73;;
13374;SDS011;6756;51.354;15.754;2022-10-16T10:13:44;4.47;;;2.60;;
13374;SDS011;6756;51.354;15.754;2022-10-16T10:17:46;3.53;;;2.53;;
13374;SDS011;6756;51.354;15.754;2022-10-16T10:21:52;2.90;;;2.60;;
13374;SDS011;6756;51.354;15.754;2022-10-16T10:26:01;2.90;;;2.50;;
13374;SDS011;6756;51.354;15.754;2022-10-16T10:34:33;2.43;;;2.23;;
13374;SDS011;6756;51.354;15.754;2022-10-16T10:43:28;2.20;;;2.00;;
13374;SDS011;6756;51.354;15.754;2022-10-16T11:04:55;1.40;;;1.30;;
13374;SDS011;6756;51.354;15.754;2022-10-16T11:09:16;2.13;;;1.40;;
13374;SDS011;6756;51.354;15.754;2022-10-16T11:17:36;1.20;;;1.10;;
13374;SDS011;6756;51.354;15.754;2022-10-16T11:21:51;1.17;;;1.07;;
13374;SDS011;6756;51.354;15.754;2022-10-16T11:26:15;2.27;;;0.97;;
13374;SDS011;6756;51.354;15.754;2022-10-16T11:34:37;1.83;;;1.20;;
13374;SDS011;6756;51.354;15.754;2022-10-16T11:43:22;1.23;;;1.13;;
13374;SDS011;6756;51.354;15.754;2022-10-16T11:51:45;2.10;;;1.40;;
13374;SDS011;6756;51.354;15.754;2022-10-16T11:55:54;4.10;;;1.50;;
13374;SDS011;6756;51.354;15.754;2022-10-16T11:59:57;1.50;;;1.40;;
13374;SDS011;6756;51.354;15.754;2022-10-16T12:08:13;1.97;;;1.23;;
13374;SDS011;6756;51.354;15.754;2022-10-16T12:12:37;2.30;;;1.20;;
13374;SDS011;6756;51.354;15.754;2022-10-16T12:20:57;1.40;;;1.17;;
13374;SDS011;6756;51.354;15.754;2022-10-16T12:25:04;1.27;;;1.17;;
13374;SDS011;6756;51.354;15.754;2022-10-16T12:29:13;1.33;;;1.17;;
13374;SDS011;6756;51.354;15.754;2022-10-16T12:33:24;1.33;;;1.20;;
13374;SDS011;6756;51.354;15.754;2022-10-16T12:41:32;1.70;;;1.20;;
13374;SDS011;6756;51.354;15.754;2022-10-16T12:45:36;3.03;;;1.13;;
13374;SDS011;6756;51.354;15.754;2022-10-16T12:49:37;2.50;;;1.30;;
13374;SDS011;6756;51.354;15.754;2022-10-16T12:53:39;1.27;;;0.97;;
13374;SDS011;6756;51.354;15.754;2022-10-16T13:01:55;1.20;;;0.93;;
13374;SDS011;6756;51.354;15.754;2022-10-16T13:06:29;1.50;;;1.23;;
13374;SDS011;6756;51.354;15.754;2022-10-16T13:31:33;1.37;;;1.00;;
13374;SDS011;6756;51.354;15.754;2022-10-16T13:35:35;1.10;;;0.93;;
13374;SDS011;6756;51.354;15.754;2022-10-16T13:39:36;2.33;;;1.30;;
13374;SDS011;6756;51.354;15.754;2022-10-16T13:47:40;1.43;;;1.33;;
13374;SDS011;6756;51.354;15.754;2022-10-16T13:51:41;1.90;;;1.30;;
13374;SDS011;6756;51.354;15.754;2022-10-16T13:55:53;2.37;;;1.30;;
13374;SDS011;6756;51.354;15.754;2022-10-16T13:59:54;3.27;;;1.40;;
13374;SDS011;6756;51.354;15.754;2022-10-16T14:04:00;2.10;;;1.60;;
13374;SDS011;6756;51.354;15.754;2022-10-16T14:08:09;1.43;;;1.30;;
13374;SDS011;6756;51.354;15.754;2022-10-16T14:12:11;3.77;;;1.20;;
13374;SDS011;6756;51.354;15.754;2022-10-16T14:16:24;1.53;;;1.40;;
13374;SDS011;6756;51.354;15.754;2022-10-16T14:20:32;2.60;;;1.53;;
13374;SDS011;6756;51.354;15.754;2022-10-16T14:24:34;4.03;;;1.37;;
13374;SDS011;6756;51.354;15.754;2022-10-16T14:28:36;2.03;;;1.30;;
13374;SDS011;6756;51.354;15.754;2022-10-16T14:32:40;1.83;;;1.30;;
13374;SDS011;6756;51.354;15.754;2022-10-16T14:36:42;1.43;;;1.17;;
13374;SDS011;6756;51.354;15.754;2022-10-16T14:40:45;1.60;;;1.20;;
13374;SDS011;6756;51.354;15.754;2022-10-16T14:44:48;1.60;;;1.30;;
13374;SDS011;6756;51.354;15.754;2022-10-16T14:48:55;1.40;;;1.30;;
13374;SDS011;6756;51.354;15.754;2022-10-16T14:53:00;2.60;;;1.30;;
13374;SDS011;6756;51.354;15.754;2022-10-16T14:57:02;3.30;;;1.23;;
13374;SDS011;6756;51.354;15.754;2022-10-16T15:01:03;3.17;;;1.43;;
13374;SDS011;6756;51.354;15.754;2022-10-16T15:05:28;2.03;;;1.20;;
13374;SDS011;6756;51.354;15.754;2022-10-16T15:09:28;1.30;;;1.17;;
13374;SDS011;6756;51.354;15.754;2022-10-16T15:13:29;2.63;;;1.20;;
13374;SDS011;6756;51.354;15.754;2022-10-16T15:17:29;2.10;;;1.90;;
13374;SDS011;6756;51.354;15.754;2022-10-16T15:21:32;2.10;;;1.50;;
13374;SDS011;6756;51.354;15.754;2022-10-16T15:25:35;1.83;;;1.50;;
13374;SDS011;6756;51.354;15.754;2022-10-16T15:29:39;1.50;;;1.30;;
13374;SDS011;6756;51.354;15.754;2022-10-16T15:33:40;1.80;;;1.60;;
13374;SDS011;6756;51.354;15.754;2022-10-16T15:37:41;1.40;;;1.30;;
13374;SDS011;6756;51.354;15.754;2022-10-16T15:41:42;2.33;;;1.63;;
13374;SDS011;6756;51.354;15.754;2022-10-16T15:45:43;1.70;;;1.40;;
13374;SDS011;6756;51.354;15.754;2022-10-16T15:49:45;2.17;;;1.53;;
13374;SDS011;6756;51.354;15.754;2022-10-16T15:53:46;1.57;;;1.40;;
13374;SDS011;6756;51.354;15.754;2022-10-16T15:57:46;1.20;;;1.10;;
13374;SDS011;6756;51.354;15.754;2022-10-16T16:01:47;1.50;;;1.40;;
13374;SDS011;6756;51.354;15.754;2022-10-16T16:05:48;2.67;;;1.40;;
13374;SDS011;6756;51.354;15.754;2022-10-16T16:09:49;1.37;;;1.27;;
13374;SDS011;6756;51.354;15.754;2022-10-16T16:13:50;2.00;;;1.70;;
13374;SDS011;6756;51.354;15.754;2022-10-16T16:17:50;1.93;;;1.50;;
13374;SDS011;6756;51.354;15.754;2022-10-16T16:21:51;3.53;;;2.00;;
13374;SDS011;6756;51.354;15.754;2022-10-16T16:26:02;1.83;;;1.70;;
13374;SDS011;6756;51.354;15.754;2022-10-16T16:30:09;3.13;;;1.60;;
13374;SDS011;6756;51.354;15.754;2022-10-16T16:34:11;2.30;;;1.73;;
13374;SDS011;6756;51.354;15.754;2022-10-16T16:38:14;1.73;;;1.63;;
13374;SDS011;6756;51.354;15.754;2022-10-16T16:42:15;3.27;;;1.93;;
13374;SDS011;6756;51.354;15.754;2022-10-16T16:46:16;3.37;;;2.00;;
13374;SDS011;6756;51.354;15.754;2022-10-16T16:50:18;2.73;;;2.20;;
13374;SDS011;6756;51.354;15.754;2022-10-16T16:54:21;2.73;;;2.10;;
13374;SDS011;6756;51.354;15.754;2022-10-16T16:58:22;3.20;;;2.20;;
13374;SDS011;6756;51.354;15.754;2022-10-16T17:02:23;3.00;;;2.07;;
13374;SDS011;6756;51.354;15.754;2022-10-16T17:06:26;3.03;;;2.30;;
13374;SDS011;6756;51.354;15.754;2022-10-16T17:10:31;3.43;;;2.60;;
13374;SDS011;6756;51.354;15.754;2022-10-16T17:14:32;2.37;;;2.07;;
13374;SDS011;6756;51.354;15.754;2022-10-16T17:18:35;3.97;;;2.20;;
13374;SDS011;6756;51.354;15.754;2022-10-16T17:22:36;2.67;;;2.37;;
13374;SDS011;6756;51.354;15.754;2022-10-16T17:26:39;1.93;;;1.77;;
13374;SDS011;6756;51.354;15.754;2022-10-16T17:30:43;2.73;;;2.50;;
13374;SDS011;6756;51.354;15.754;2022-10-16T17:34:45;4.47;;;3.33;;
13374;SDS011;6756;51.354;15.754;2022-10-16T17:38:47;3.40;;;2.93;;
13374;SDS011;6756;51.354;15.754;2022-10-16T17:42:48;3.73;;;2.90;;
13374;SDS011;6756;51.354;15.754;2022-10-16T17:46:50;2.57;;;2.37;;
13374;SDS011;6756;51.354;15.754;2022-10-16T17:50:53;2.93;;;2.50;;
13374;SDS011;6756;51.354;15.754;2022-10-16T17:54:54;2.33;;;2.13;;
13374;SDS011;6756;51.354;15.754;2022-10-16T17:58:58;2.37;;;2.17;;
13374;SDS011;6756;51.354;15.754;2022-10-16T18:03:01;2.57;;;2.37;;
13374;SDS011;6756;51.354;15.754;2022-10-16T18:07:02;2.27;;;2.07;;
13374;SDS011;6756;51.354;15.754;2022-10-16T18:11:03;2.23;;;2.03;;
13374;SDS011;6756;51.354;15.754;2022-10-16T18:15:07;2.73;;;2.13;;
13374;SDS011;6756;51.354;15.754;2022-10-16T18:19:09;2.40;;;2.03;;
13374;SDS011;6756;51.354;15.754;2022-10-16T18:23:11;3.20;;;2.57;;
13374;SDS011;6756;51.354;15.754;2022-10-16T18:27:13;2.93;;;2.67;;
13374;SDS011;6756;51.354;15.754;2022-10-16T18:31:16;4.67;;;4.20;;
13374;SDS011;6756;51.354;15.754;2022-10-16T18:35:17;3.80;;;3.30;;
13374;SDS011;6756;51.354;15.754;2022-10-16T18:39:18;4.13;;;3.67;;
13374;SDS011;6756;51.354;15.754;2022-10-16T18:43:23;4.07;;;3.67;;
13374;SDS011;6756;51.354;15.754;2022-10-16T18:47:24;4.17;;;3.77;;
13374;SDS011;6756;51.354;15.754;2022-10-16T18:51:28;4.60;;;3.30;;
13374;SDS011;6756;51.354;15.754;2022-10-16T18:55:35;3.40;;;3.00;;
13374;SDS011;6756;51.354;15.754;2022-10-16T18:59:36;3.60;;;3.30;;
13374;SDS011;6756;51.354;15.754;2022-10-16T19:03:38;5.23;;;4.40;;
13374;SDS011;6756;51.354;15.754;2022-10-16T19:07:43;7.23;;;5.77;;
13374;SDS011;6756;51.354;15.754;2022-10-16T19:11:46;6.60;;;5.47;;
13374;SDS011;6756;51.354;15.754;2022-10-16T19:15:47;5.93;;;4.87;;
13374;SDS011;6756;51.354;15.754;2022-10-16T19:19:48;4.60;;;3.63;;
13374;SDS011;6756;51.354;15.754;2022-10-16T19:23:52;3.73;;;3.20;;
13374;SDS011;6756;51.354;15.754;2022-10-16T19:27:57;2.80;;;2.60;;
13374;SDS011;6756;51.354;15.754;2022-10-16T19:32:00;4.07;;;3.23;;
13374;SDS011;6756;51.354;15.754;2022-10-16T19:36:15;5.30;;;3.43;;
13374;SDS011;6756;51.354;15.754;2022-10-16T19:40:17;5.37;;;4.10;;
13374;SDS011;6756;51.354;15.754;2022-10-16T19:44:18;3.93;;;2.90;;
13374;SDS011;6756;51.354;15.754;2022-10-16T19:48:19;1.97;;;1.77;;
13374;SDS011;6756;51.354;15.754;2022-10-16T19:52:22;2.87;;;2.57;;
13374;SDS011;6756;51.354;15.754;2022-10-16T19:56:24;3.13;;;2.27;;
13374;SDS011;6756;51.354;15.754;2022-10-16T20:00:27;3.10;;;2.77;;
13374;SDS011;6756;51.354;15.754;2022-10-16T20:04:28;4.63;;;3.10;;
13374;SDS011;6756;51.354;15.754;2022-10-16T20:08:29;4.13;;;3.63;;
13374;SDS011;6756;51.354;15.754;2022-10-16T20:12:33;4.73;;;3.50;;
13374;SDS011;6756;51.354;15.754;2022-10-16T20:16:34;4.50;;;3.67;;
13374;SDS011;6756;51.354;15.754;2022-10-16T20:20:42;5.70;;;4.40;;
13374;SDS011;6756;51.354;15.754;2022-10-16T20:24:44;5.23;;;4.37;;
13374;SDS011;6756;51.354;15.754;2022-10-16T20:28:45;4.50;;;4.10;;
13374;SDS011;6756;51.354;15.754;2022-10-16T20:32:46;4.80;;;3.77;;
13374;SDS011;6756;51.354;15.754;2022-10-16T20:36:47;4.77;;;4.27;;
13374;SDS011;6756;51.354;15.754;2022-10-16T20:40:49;5.47;;;4.37;;
13374;SDS011;6756;51.354;15.754;2022-10-16T20:44:50;3.87;;;3.57;;
13374;SDS011;6756;51.354;15.754;2022-10-16T20:48:51;4.27;;;3.33;;
13374;SDS011;6756;51.354;15.754;2022-10-16T20:52:54;3.70;;;3.00;;
13374;SDS011;6756;51.354;15.754;2022-10-16T20:56:55;3.83;;;3.53;;
13374;SDS011;6756;51.354;15.754;2022-10-16T21:01:03;3.87;;;3.50;;
13374;SDS011;6756;51.354;15.754;2022-10-16T21:05:07;6.93;;;5.13;;
13374;SDS011;6756;51.354;15.754;2022-10-16T21:09:08;5.87;;;4.70;;
13374;SDS011;6756;51.354;15.754;2022-10-16T21:13:09;6.77;;;6.07;;
13374;SDS011;6756;51.354;15.754;2022-10-16T21:17:10;6.13;;;5.40;;
13374;SDS011;6756;51.354;15.754;2022-10-16T21:21:21;6.83;;;5.10;;
13374;SDS011;6756;51.354;15.754;2022-10-16T21:25:27;5.63;;;4.80;;
13374;SDS011;6756;51.354;15.754;2022-10-16T21:29:29;6.47;;;5.23;;
13374;SDS011;6756;51.354;15.754;2022-10-16T21:33:30;6.10;;;5.27;;
13374;SDS011;6756;51.354;15.754;2022-10-16T21:37:31;5.47;;;4.73;;
13374;SDS011;6756;51.354;15.754;2022-10-16T21:41:33;6.80;;;5.17;;
13374;SDS011;6756;51.354;15.754;2022-10-16T21:45:34;5.67;;;5.07;;
13374;SDS011;6756;51.354;15.754;2022-10-16T21:49:34;6.27;;;4.90;;
13374;SDS011;6756;51.354;15.754;2022-10-16T21:53:35;6.50;;;5.83;;
13374;SDS011;6756;51.354;15.754;2022-10-16T21:57:36;5.67;;;5.07;;
13374;SDS011;6756;51.354;15.754;2022-10-16T22:01:38;5.83;;;5.27;;
13374;SDS011;6756;51.354;15.754;2022-10-16T22:05:39;11.03;;;8.20;;
13374;SDS011;6756;51.354;15.754;2022-10-16T22:09:40;13.43;;;11.03;;
13374;SDS011;6756;51.354;15.754;2022-10-16T22:13:41;15.73;;;11.47;;
13374;SDS011;6756;51.354;15.754;2022-10-16T22:17:42;10.80;;;8.07;;
13374;SDS011;6756;51.354;15.754;2022-10-16T22:21:43;8.03;;;6.17;;
13374;SDS011;6756;51.354;15.754;2022-10-16T22:25:47;5.63;;;5.03;;
13374;SDS011;6756;51.354;15.754;2022-10-16T22:29:51;5.90;;;4.93;;
13374;SDS011;6756;51.354;15.754;2022-10-16T22:33:53;4.90;;;4.40;;
13374;SDS011;6756;51.354;15.754;2022-10-16T22:37:55;5.93;;;4.00;;
13374;SDS011;6756;51.354;15.754;2022-10-16T22:41:55;5.87;;;4.90;;
13374;SDS011;6756;51.354;15.754;2022-10-16T22:46:06;5.80;;;4.23;;
13374;SDS011;6756;51.354;15.754;2022-10-16T22:50:08;4.60;;;4.13;;
13374;SDS011;6756;51.354;15.754;2022-10-16T22:54:09;5.20;;;4.70;;
13374;SDS011;6756;51.354;15.754;2022-10-16T22:58:10;6.07;;;4.80;;
13374;SDS011;6756;51.354;15.754;2022-10-16T23:02:11;5.20;;;4.70;;
13374;SDS011;6756;51.354;15.754;2022-10-16T23:06:11;5.00;;;4.50;;
13374;SDS011;6756;51.354;15.754;2022-10-16T23:10:12;5.73;;;4.60;;
13374;SDS011;6756;51.354;15.754;2022-10-16T23:14:17;5.90;;;5.07;;
13374;SDS011;6756;51.354;15.754;2022-10-16T23:18:21;7.40;;;5.40;;
13374;SDS011;6756;51.354;15.754;2022-10-16T23:22:22;5.43;;;4.83;;
13374;SDS011;6756;51.354;15.754;2022-10-16T23:26:24;5.17;;;4.67;;
13374;SDS011;6756;51.354;15.754;2022-10-16T23:30:26;5.50;;;4.70;;
13374;SDS011;6756;51.354;15.754;2022-10-16T23:34:27;5.13;;;4.23;;
13374;SDS011;6756;51.354;15.754;2022-10-16T23:38:28;4.87;;;4.37;;
13374;SDS011;6756;51.354;15.754;2022-10-16T23:42:29;4.70;;;4.30;;
13374;SDS011;6756;51.354;15.754;2022-10-16T23:46:29;5.47;;;4.50;;
13374;SDS011;6756;51.354;15.754;2022-10-16T23:50:30;4.90;;;4.40;;
13374;SDS011;6756;51.354;15.754;2022-10-16T23:54:31;5.03;;;4.43;;
13374;SDS011;6756;51.354;15.754;2022-10-16T23:58:32;5.30;;;4.07;;
